sensor_id;sensor_type;location;lat;lon;timestamp;P1;durP1;ratioP1;P2;durP2;ratioP2
26588;SDS011;14235;48.532;8.722;2023-11-19T02:18:22;0.38;;;0.20;;
26588;SDS011;14235;48.532;8.722;2023-11-19T02:20:52;0.55;;;0.28;;
26588;SDS011;14235;48.532;8.722;2023-11-19T02:23:19;0.57;;;0.32;;
26588;SDS011;14235;48.532;8.722;2023-11-19T02:49:53;0.30;;;0.10;;
26588;SDS011;14235;48.532;8.722;2023-11-19T02:53:25;0.63;;;0.30;;
26588;SDS011;14235;48.532;8.722;2023-11-19T04:23:46;0.20;;;0.20;;
26588;SDS011;14235;48.532;8.722;2023-11-19T04:58:38;0.80;;;0.10;;
26588;SDS011;14235;48.532;8.722;2023-11-19T05:01:04;0.35;;;0.30;;
26588;SDS011;14235;48.532;8.722;2023-11-19T05:03:30;0.75;;;0.13;;
26588;SDS011;14235;48.532;8.722;2023-11-19T05:05:56;0.50;;;0.28;;
26588;SDS011;14235;48.532;8.722;2023-11-19T05:08:22;0.40;;;0.40;;
26588;SDS011;14235;48.532;8.722;2023-11-19T05:10:48;0.13;;;0.10;;
26588;SDS011;14235;48.532;8.722;2023-11-19T05:13:14;0.10;;;0.10;;
26588;SDS011;14235;48.532;8.722;2023-11-19T05:15:40;1.05;;;1.05;;
26588;SDS011;14235;48.532;8.722;2023-11-19T05:18:06;1.10;;;1.10;;
26588;SDS011;14235;48.532;8.722;2023-11-19T08:02:59;0.80;;;0.80;;
26588;SDS011;14235;48.532;8.722;2023-11-19T08:13:20;0.90;;;0.90;;
26588;SDS011;14235;48.532;8.722;2023-11-19T08:16:44;3.60;;;3.25;;
26588;SDS011;14235;48.532;8.722;2023-11-19T08:27:02;1.55;;;1.33;;
26588;SDS011;14235;48.532;8.722;2023-11-19T08:43:55;0.75;;;0.75;;
26588;SDS011;14235;48.532;8.722;2023-11-19T08:47:05;1.55;;;1.45;;
26588;SDS011;14235;48.532;8.722;2023-11-19T08:50:36;2.35;;;1.17;;
26588;SDS011;14235;48.532;8.722;2023-11-19T09:18:24;1.55;;;1.13;;
26588;SDS011;14235;48.532;8.722;2023-11-19T09:22:04;1.10;;;1.10;;
26588;SDS011;14235;48.532;8.722;2023-11-19T09:25:35;1.00;;;0.80;;
26588;SDS011;14235;48.532;8.722;2023-11-19T10:26:26;0.22;;;0.22;;
26588;SDS011;14235;48.532;8.722;2023-11-19T10:33:32;3.05;;;0.88;;
26588;SDS011;14235;48.532;8.722;2023-11-19T10:40:48;1.85;;;0.77;;
26588;SDS011;14235;48.532;8.722;2023-11-19T10:44:32;0.95;;;0.88;;
26588;SDS011;14235;48.532;8.722;2023-11-19T10:47:19;1.00;;;0.70;;
26588;SDS011;14235;48.532;8.722;2023-11-19T10:49:45;0.82;;;0.60;;
26588;SDS011;14235;48.532;8.722;2023-11-19T10:52:11;1.90;;;0.80;;
26588;SDS011;14235;48.532;8.722;2023-11-19T10:54:39;0.80;;;0.28;;
26588;SDS011;14235;48.532;8.722;2023-11-19T10:57:09;0.75;;;0.43;;
26588;SDS011;14235;48.532;8.722;2023-11-19T10:59:37;0.73;;;0.60;;
26588;SDS011;14235;48.532;8.722;2023-11-19T11:02:03;2.05;;;0.70;;
26588;SDS011;14235;48.532;8.722;2023-11-19T11:04:35;1.95;;;0.70;;
26588;SDS011;14235;48.532;8.722;2023-11-19T11:07:05;0.60;;;0.60;;
26588;SDS011;14235;48.532;8.722;2023-11-19T11:09:32;0.88;;;0.40;;
26588;SDS011;14235;48.532;8.722;2023-11-19T11:11:58;1.70;;;0.68;;
26588;SDS011;14235;48.532;8.722;2023-11-19T11:14:25;1.33;;;0.60;;
26588;SDS011;14235;48.532;8.722;2023-11-19T11:16:52;1.42;;;0.45;;
26588;SDS011;14235;48.532;8.722;2023-11-19T11:19:18;1.20;;;0.43;;
26588;SDS011;14235;48.532;8.722;2023-11-19T11:21:47;1.10;;;0.25;;
26588;SDS011;14235;48.532;8.722;2023-11-19T11:33:08;0.63;;;0.50;;
26588;SDS011;14235;48.532;8.722;2023-11-19T11:35:53;1.95;;;0.77;;
26588;SDS011;14235;48.532;8.722;2023-11-19T11:38:27;0.73;;;0.60;;
26588;SDS011;14235;48.532;8.722;2023-11-19T11:43:45;0.52;;;0.52;;
26588;SDS011;14235;48.532;8.722;2023-11-19T11:49:02;0.82;;;0.82;;
26588;SDS011;14235;48.532;8.722;2023-11-19T11:54:10;0.60;;;0.40;;
26588;SDS011;14235;48.532;8.722;2023-11-19T11:57:03;0.30;;;0.30;;
26588;SDS011;14235;48.532;8.722;2023-11-19T12:02:10;0.40;;;0.40;;
26588;SDS011;14235;48.532;8.722;2023-11-19T12:04:39;0.50;;;0.50;;
26588;SDS011;14235;48.532;8.722;2023-11-19T12:07:08;0.80;;;0.40;;
26588;SDS011;14235;48.532;8.722;2023-11-19T12:09:41;0.82;;;0.47;;
26588;SDS011;14235;48.532;8.722;2023-11-19T12:20:17;1.20;;;0.70;;
26588;SDS011;14235;48.532;8.722;2023-11-19T12:22:44;1.13;;;0.60;;
26588;SDS011;14235;48.532;8.722;2023-11-19T12:25:11;1.13;;;0.60;;
26588;SDS011;14235;48.532;8.722;2023-11-19T12:27:44;4.22;;;0.50;;
26588;SDS011;14235;48.532;8.722;2023-11-19T12:30:10;1.02;;;0.73;;
26588;SDS011;14235;48.532;8.722;2023-11-19T12:32:43;1.50;;;0.63;;
26588;SDS011;14235;48.532;8.722;2023-11-19T12:35:10;1.75;;;0.52;;
26588;SDS011;14235;48.532;8.722;2023-11-19T12:37:43;1.02;;;0.50;;
26588;SDS011;14235;48.532;8.722;2023-11-19T12:40:15;0.45;;;0.38;;
26588;SDS011;14235;48.532;8.722;2023-11-19T12:42:46;0.47;;;0.38;;
26588;SDS011;14235;48.532;8.722;2023-11-19T12:45:15;0.50;;;0.50;;
26588;SDS011;14235;48.532;8.722;2023-11-19T12:47:42;1.50;;;0.68;;
26588;SDS011;14235;48.532;8.722;2023-11-19T12:50:08;1.13;;;0.50;;
26588;SDS011;14235;48.532;8.722;2023-11-19T12:52:35;0.40;;;0.40;;
26588;SDS011;14235;48.532;8.722;2023-11-19T12:55:05;0.70;;;0.60;;
26588;SDS011;14235;48.532;8.722;2023-11-19T12:57:51;1.60;;;0.40;;
26588;SDS011;14235;48.532;8.722;2023-11-19T13:00:19;0.43;;;0.30;;
26588;SDS011;14235;48.532;8.722;2023-11-19T13:02:47;1.73;;;0.65;;
26588;SDS011;14235;48.532;8.722;2023-11-19T13:05:32;0.50;;;0.50;;
26588;SDS011;14235;48.532;8.722;2023-11-19T13:08:01;0.73;;;0.60;;
26588;SDS011;14235;48.532;8.722;2023-11-19T13:10:29;0.47;;;0.40;;
26588;SDS011;14235;48.532;8.722;2023-11-19T13:13:06;0.73;;;0.55;;
26588;SDS011;14235;48.532;8.722;2023-11-19T13:15:35;0.47;;;0.45;;
26588;SDS011;14235;48.532;8.722;2023-11-19T13:18:01;1.40;;;0.77;;
26588;SDS011;14235;48.532;8.722;2023-11-19T13:20:27;1.25;;;0.55;;
26588;SDS011;14235;48.532;8.722;2023-11-19T13:22:57;1.70;;;0.55;;
26588;SDS011;14235;48.532;8.722;2023-11-19T13:25:27;0.77;;;0.40;;
26588;SDS011;14235;48.532;8.722;2023-11-19T13:27:53;0.65;;;0.60;;
26588;SDS011;14235;48.532;8.722;2023-11-19T13:30:19;1.00;;;0.52;;
26588;SDS011;14235;48.532;8.722;2023-11-19T13:32:45;0.90;;;0.57;;
26588;SDS011;14235;48.532;8.722;2023-11-19T13:35:11;1.67;;;0.60;;
26588;SDS011;14235;48.532;8.722;2023-11-19T13:37:38;0.65;;;0.60;;
26588;SDS011;14235;48.532;8.722;2023-11-19T13:40:04;0.60;;;0.60;;
26588;SDS011;14235;48.532;8.722;2023-11-19T13:42:31;2.28;;;0.75;;
26588;SDS011;14235;48.532;8.722;2023-11-19T13:44:57;0.38;;;0.38;;
26588;SDS011;14235;48.532;8.722;2023-11-19T13:47:22;0.50;;;0.50;;
26588;SDS011;14235;48.532;8.722;2023-11-19T13:49:48;0.80;;;0.45;;
26588;SDS011;14235;48.532;8.722;2023-11-19T13:52:14;0.68;;;0.52;;
26588;SDS011;14235;48.532;8.722;2023-11-19T13:54:40;0.38;;;0.38;;
26588;SDS011;14235;48.532;8.722;2023-11-19T13:57:06;1.30;;;0.50;;
26588;SDS011;14235;48.532;8.722;2023-11-19T13:59:31;0.90;;;0.50;;
26588;SDS011;14235;48.532;8.722;2023-11-19T14:01:59;0.82;;;0.60;;
26588;SDS011;14235;48.532;8.722;2023-11-19T14:04:25;0.50;;;0.50;;
26588;SDS011;14235;48.532;8.722;2023-11-19T14:06:51;0.50;;;0.50;;
26588;SDS011;14235;48.532;8.722;2023-11-19T14:09:17;0.73;;;0.40;;
26588;SDS011;14235;48.532;8.722;2023-11-19T14:11:43;0.70;;;0.70;;
26588;SDS011;14235;48.532;8.722;2023-11-19T14:14:09;1.27;;;0.43;;
26588;SDS011;14235;48.532;8.722;2023-11-19T14:16:35;1.13;;;0.45;;
26588;SDS011;14235;48.532;8.722;2023-11-19T14:19:01;1.10;;;0.47;;
26588;SDS011;14235;48.532;8.722;2023-11-19T14:21:26;2.15;;;0.77;;
26588;SDS011;14235;48.532;8.722;2023-11-19T14:23:52;1.02;;;0.68;;
26588;SDS011;14235;48.532;8.722;2023-11-19T14:26:18;1.13;;;0.85;;
26588;SDS011;14235;48.532;8.722;2023-11-19T14:28:44;0.60;;;0.60;;
26588;SDS011;14235;48.532;8.722;2023-11-19T14:31:09;1.08;;;0.70;;
26588;SDS011;14235;48.532;8.722;2023-11-19T14:33:35;0.98;;;0.68;;
26588;SDS011;14235;48.532;8.722;2023-11-19T14:36:01;0.30;;;0.30;;
26588;SDS011;14235;48.532;8.722;2023-11-19T14:38:27;0.60;;;0.60;;
26588;SDS011;14235;48.532;8.722;2023-11-19T14:40:53;0.45;;;0.45;;
26588;SDS011;14235;48.532;8.722;2023-11-19T14:43:19;0.35;;;0.35;;
26588;SDS011;14235;48.532;8.722;2023-11-19T14:45:45;1.02;;;0.70;;
26588;SDS011;14235;48.532;8.722;2023-11-19T14:48:11;1.40;;;1.30;;
26588;SDS011;14235;48.532;8.722;2023-11-19T14:50:36;1.08;;;0.93;;
26588;SDS011;14235;48.532;8.722;2023-11-19T14:53:02;1.95;;;1.42;;
26588;SDS011;14235;48.532;8.722;2023-11-19T14:55:28;2.95;;;2.03;;
26588;SDS011;14235;48.532;8.722;2023-11-19T14:57:53;1.65;;;0.50;;
26588;SDS011;14235;48.532;8.722;2023-11-19T15:00:19;1.20;;;1.10;;
26588;SDS011;14235;48.532;8.722;2023-11-19T15:02:46;1.42;;;1.27;;
26588;SDS011;14235;48.532;8.722;2023-11-19T15:05:11;1.38;;;0.82;;
26588;SDS011;14235;48.532;8.722;2023-11-19T15:07:38;3.65;;;0.90;;
26588;SDS011;14235;48.532;8.722;2023-11-19T15:10:05;1.85;;;1.08;;
26588;SDS011;14235;48.532;8.722;2023-11-19T15:12:35;0.60;;;0.60;;
26588;SDS011;14235;48.532;8.722;2023-11-19T15:15:04;0.75;;;0.45;;
26588;SDS011;14235;48.532;8.722;2023-11-19T15:17:38;0.75;;;0.75;;
26588;SDS011;14235;48.532;8.722;2023-11-19T15:20:04;1.85;;;0.90;;
26588;SDS011;14235;48.532;8.722;2023-11-19T15:22:31;0.60;;;0.50;;
26588;SDS011;14235;48.532;8.722;2023-11-19T15:24:56;0.50;;;0.50;;
26588;SDS011;14235;48.532;8.722;2023-11-19T15:27:22;1.45;;;0.60;;
26588;SDS011;14235;48.532;8.722;2023-11-19T15:29:47;1.48;;;0.80;;
26588;SDS011;14235;48.532;8.722;2023-11-19T15:32:13;3.70;;;3.40;;
26588;SDS011;14235;48.532;8.722;2023-11-19T15:34:39;8.68;;;2.40;;
26588;SDS011;14235;48.532;8.722;2023-11-19T15:37:06;1.10;;;1.00;;
26588;SDS011;14235;48.532;8.722;2023-11-19T15:39:32;2.30;;;2.20;;
26588;SDS011;14235;48.532;8.722;2023-11-19T15:41:58;2.25;;;1.92;;
26588;SDS011;14235;48.532;8.722;2023-11-19T15:44:24;0.90;;;0.90;;
26588;SDS011;14235;48.532;8.722;2023-11-19T15:46:50;0.80;;;0.65;;
26588;SDS011;14235;48.532;8.722;2023-11-19T15:49:15;0.73;;;0.60;;
26588;SDS011;14235;48.532;8.722;2023-11-19T15:51:41;2.05;;;1.00;;
26588;SDS011;14235;48.532;8.722;2023-11-19T15:54:07;0.90;;;0.90;;
26588;SDS011;14235;48.532;8.722;2023-11-19T15:56:33;3.35;;;1.00;;
26588;SDS011;14235;48.532;8.722;2023-11-19T15:58:58;1.27;;;0.90;;
26588;SDS011;14235;48.532;8.722;2023-11-19T16:01:24;2.55;;;2.13;;
26588;SDS011;14235;48.532;8.722;2023-11-19T16:03:50;3.15;;;1.90;;
26588;SDS011;14235;48.532;8.722;2023-11-19T16:06:16;1.73;;;1.23;;
26588;SDS011;14235;48.532;8.722;2023-11-19T16:08:43;1.92;;;1.00;;
26588;SDS011;14235;48.532;8.722;2023-11-19T16:11:09;2.97;;;1.52;;
26588;SDS011;14235;48.532;8.722;2023-11-19T16:13:35;1.48;;;0.90;;
26588;SDS011;14235;48.532;8.722;2023-11-19T16:16:00;0.90;;;0.60;;
26588;SDS011;14235;48.532;8.722;2023-11-19T16:18:26;1.70;;;0.65;;
26588;SDS011;14235;48.532;8.722;2023-11-19T16:20:53;1.52;;;0.80;;
26588;SDS011;14235;48.532;8.722;2023-11-19T16:23:19;2.65;;;1.27;;
26588;SDS011;14235;48.532;8.722;2023-11-19T16:25:45;1.63;;;1.10;;
26588;SDS011;14235;48.532;8.722;2023-11-19T16:28:11;1.95;;;1.13;;
26588;SDS011;14235;48.532;8.722;2023-11-19T16:30:36;3.70;;;2.53;;
26588;SDS011;14235;48.532;8.722;2023-11-19T16:33:02;3.15;;;1.70;;
26588;SDS011;14235;48.532;8.722;2023-11-19T16:35:28;2.45;;;1.60;;
26588;SDS011;14235;48.532;8.722;2023-11-19T16:37:54;1.25;;;1.00;;
26588;SDS011;14235;48.532;8.722;2023-11-19T16:40:20;3.08;;;1.20;;
26588;SDS011;14235;48.532;8.722;2023-11-19T16:42:45;1.63;;;1.50;;
26588;SDS011;14235;48.532;8.722;2023-11-19T16:45:11;1.70;;;1.30;;
26588;SDS011;14235;48.532;8.722;2023-11-19T16:47:38;1.50;;;1.40;;
26588;SDS011;14235;48.532;8.722;2023-11-19T16:50:04;1.60;;;1.50;;
26588;SDS011;14235;48.532;8.722;2023-11-19T16:52:30;1.95;;;1.17;;
26588;SDS011;14235;48.532;8.722;2023-11-19T16:54:59;1.05;;;1.00;;
26588;SDS011;14235;48.532;8.722;2023-11-19T16:57:26;3.03;;;1.13;;
26588;SDS011;14235;48.532;8.722;2023-11-19T16:59:52;2.10;;;0.90;;
26588;SDS011;14235;48.532;8.722;2023-11-19T17:02:21;3.58;;;1.30;;
26588;SDS011;14235;48.532;8.722;2023-11-19T17:04:50;2.28;;;1.00;;
26588;SDS011;14235;48.532;8.722;2023-11-19T17:07:16;1.20;;;1.08;;
26588;SDS011;14235;48.532;8.722;2023-11-19T17:09:42;1.50;;;1.42;;
26588;SDS011;14235;48.532;8.722;2023-11-19T17:12:08;5.45;;;1.52;;
26588;SDS011;14235;48.532;8.722;2023-11-19T17:14:34;3.00;;;1.27;;
26588;SDS011;14235;48.532;8.722;2023-11-19T17:17:06;2.53;;;1.58;;
26588;SDS011;14235;48.532;8.722;2023-11-19T17:19:49;4.75;;;1.48;;
26588;SDS011;14235;48.532;8.722;2023-11-19T17:22:15;5.53;;;2.08;;
26588;SDS011;14235;48.532;8.722;2023-11-19T17:24:40;5.18;;;2.30;;
26588;SDS011;14235;48.532;8.722;2023-11-19T17:27:09;2.45;;;1.73;;
26588;SDS011;14235;48.532;8.722;2023-11-19T17:29:35;1.58;;;1.33;;
26588;SDS011;14235;48.532;8.722;2023-11-19T17:32:02;2.42;;;1.38;;
26588;SDS011;14235;48.532;8.722;2023-11-19T17:34:28;3.42;;;1.70;;
26588;SDS011;14235;48.532;8.722;2023-11-19T17:36:55;4.35;;;2.60;;
26588;SDS011;14235;48.532;8.722;2023-11-19T17:39:20;1.80;;;1.63;;
26588;SDS011;14235;48.532;8.722;2023-11-19T17:41:46;2.40;;;1.60;;
26588;SDS011;14235;48.532;8.722;2023-11-19T17:44:12;2.45;;;1.10;;
26588;SDS011;14235;48.532;8.722;2023-11-19T17:46:38;1.35;;;1.20;;
26588;SDS011;14235;48.532;8.722;2023-11-19T17:49:06;1.95;;;1.50;;
26588;SDS011;14235;48.532;8.722;2023-11-19T17:51:32;1.63;;;1.30;;
26588;SDS011;14235;48.532;8.722;2023-11-19T17:53:57;3.95;;;1.52;;
26588;SDS011;14235;48.532;8.722;2023-11-19T17:56:23;1.23;;;1.17;;
26588;SDS011;14235;48.532;8.722;2023-11-19T17:58:49;3.28;;;1.40;;
26588;SDS011;14235;48.532;8.722;2023-11-19T18:01:19;2.83;;;2.38;;
26588;SDS011;14235;48.532;8.722;2023-11-19T18:03:45;3.60;;;1.90;;
26588;SDS011;14235;48.532;8.722;2023-11-19T18:06:17;1.60;;;1.27;;
26588;SDS011;14235;48.532;8.722;2023-11-19T18:08:43;5.38;;;2.05;;
26588;SDS011;14235;48.532;8.722;2023-11-19T18:11:09;3.38;;;1.60;;
26588;SDS011;14235;48.532;8.722;2023-11-19T18:13:35;1.92;;;1.80;;
26588;SDS011;14235;48.532;8.722;2023-11-19T18:16:01;2.00;;;1.58;;
26588;SDS011;14235;48.532;8.722;2023-11-19T18:18:27;2.42;;;1.55;;
26588;SDS011;14235;48.532;8.722;2023-11-19T18:20:52;1.75;;;1.50;;
26588;SDS011;14235;48.532;8.722;2023-11-19T18:23:18;2.20;;;1.60;;
26588;SDS011;14235;48.532;8.722;2023-11-19T18:25:44;1.50;;;1.40;;
26588;SDS011;14235;48.532;8.722;2023-11-19T18:28:11;5.00;;;1.73;;
26588;SDS011;14235;48.532;8.722;2023-11-19T18:30:37;2.58;;;1.77;;
26588;SDS011;14235;48.532;8.722;2023-11-19T18:35:46;3.35;;;1.65;;
26588;SDS011;14235;48.532;8.722;2023-11-19T18:38:11;3.58;;;1.83;;
26588;SDS011;14235;48.532;8.722;2023-11-19T18:40:37;6.28;;;1.83;;
26588;SDS011;14235;48.532;8.722;2023-11-19T18:43:03;1.92;;;1.60;;
26588;SDS011;14235;48.532;8.722;2023-11-19T18:45:28;3.30;;;2.10;;
26588;SDS011;14235;48.532;8.722;2023-11-19T18:47:54;1.80;;;1.70;;
26588;SDS011;14235;48.532;8.722;2023-11-19T18:50:20;3.08;;;2.00;;
26588;SDS011;14235;48.532;8.722;2023-11-19T18:52:46;2.33;;;1.90;;
26588;SDS011;14235;48.532;8.722;2023-11-19T18:55:12;1.70;;;1.60;;
26588;SDS011;14235;48.532;8.722;2023-11-19T18:57:38;2.50;;;1.70;;
26588;SDS011;14235;48.532;8.722;2023-11-19T19:00:05;2.33;;;2.10;;
26588;SDS011;14235;48.532;8.722;2023-11-19T19:02:32;2.35;;;2.10;;
26588;SDS011;14235;48.532;8.722;2023-11-19T19:04:59;2.47;;;1.98;;
26588;SDS011;14235;48.532;8.722;2023-11-19T19:07:25;2.30;;;1.27;;
26588;SDS011;14235;48.532;8.722;2023-11-19T19:09:51;2.28;;;1.95;;
26588;SDS011;14235;48.532;8.722;2023-11-19T19:12:20;2.00;;;1.80;;
26588;SDS011;14235;48.532;8.722;2023-11-19T19:14:46;2.03;;;1.52;;
26588;SDS011;14235;48.532;8.722;2023-11-19T19:17:12;3.28;;;1.80;;
26588;SDS011;14235;48.532;8.722;2023-11-19T19:19:39;2.85;;;1.65;;
26588;SDS011;14235;48.532;8.722;2023-11-19T19:22:05;4.53;;;1.70;;
26588;SDS011;14235;48.532;8.722;2023-11-19T19:24:31;2.28;;;2.10;;
26588;SDS011;14235;48.532;8.722;2023-11-19T19:26:56;1.92;;;1.77;;
26588;SDS011;14235;48.532;8.722;2023-11-19T19:29:22;1.73;;;1.63;;
26588;SDS011;14235;48.532;8.722;2023-11-19T19:31:49;1.67;;;1.20;;
26588;SDS011;14235;48.532;8.722;2023-11-19T19:34:14;2.83;;;1.08;;
26588;SDS011;14235;48.532;8.722;2023-11-19T19:36:40;1.67;;;1.20;;
26588;SDS011;14235;48.532;8.722;2023-11-19T19:39:06;3.85;;;1.40;;
26588;SDS011;14235;48.532;8.722;2023-11-19T19:41:39;2.03;;;1.30;;
26588;SDS011;14235;48.532;8.722;2023-11-19T19:44:06;2.88;;;1.20;;
26588;SDS011;14235;48.532;8.722;2023-11-19T19:46:34;2.53;;;1.30;;
26588;SDS011;14235;48.532;8.722;2023-11-19T19:49:01;1.00;;;1.00;;
26588;SDS011;14235;48.532;8.722;2023-11-19T19:51:30;2.78;;;1.58;;
26588;SDS011;14235;48.532;8.722;2023-11-19T19:53:56;2.08;;;1.40;;
26588;SDS011;14235;48.532;8.722;2023-11-19T19:56:21;2.65;;;0.90;;
26588;SDS011;14235;48.532;8.722;2023-11-19T19:58:47;2.38;;;1.40;;
26588;SDS011;14235;48.532;8.722;2023-11-19T20:01:13;1.63;;;1.00;;
26588;SDS011;14235;48.532;8.722;2023-11-19T20:03:40;3.00;;;1.55;;
26588;SDS011;14235;48.532;8.722;2023-11-19T20:06:05;2.20;;;1.20;;
26588;SDS011;14235;48.532;8.722;2023-11-19T20:08:54;1.05;;;1.00;;
26588;SDS011;14235;48.532;8.722;2023-11-19T20:11:20;3.47;;;1.10;;
26588;SDS011;14235;48.532;8.722;2023-11-19T20:13:45;2.35;;;1.45;;
26588;SDS011;14235;48.532;8.722;2023-11-19T20:16:11;1.55;;;1.02;;
26588;SDS011;14235;48.532;8.722;2023-11-19T20:18:37;2.67;;;1.00;;
26588;SDS011;14235;48.532;8.722;2023-11-19T20:21:03;2.28;;;1.25;;
26588;SDS011;14235;48.532;8.722;2023-11-19T20:23:29;1.38;;;1.27;;
26588;SDS011;14235;48.532;8.722;2023-11-19T20:25:55;1.17;;;1.08;;
26588;SDS011;14235;48.532;8.722;2023-11-19T20:28:21;2.33;;;1.00;;
26588;SDS011;14235;48.532;8.722;2023-11-19T20:30:47;2.25;;;1.08;;
26588;SDS011;14235;48.532;8.722;2023-11-19T20:33:12;1.00;;;1.00;;
26588;SDS011;14235;48.532;8.722;2023-11-19T20:35:38;2.90;;;2.70;;
26588;SDS011;14235;48.532;8.722;2023-11-19T20:38:04;2.00;;;1.80;;
26588;SDS011;14235;48.532;8.722;2023-11-19T20:40:30;1.17;;;0.90;;
26588;SDS011;14235;48.532;8.722;2023-11-19T20:42:56;1.02;;;0.88;;
26588;SDS011;14235;48.532;8.722;2023-11-19T20:45:22;1.33;;;1.13;;
26588;SDS011;14235;48.532;8.722;2023-11-19T20:47:52;1.70;;;1.50;;
26588;SDS011;14235;48.532;8.722;2023-11-19T20:50:17;1.35;;;1.25;;
26588;SDS011;14235;48.532;8.722;2023-11-19T20:52:47;1.20;;;0.90;;
26588;SDS011;14235;48.532;8.722;2023-11-19T20:55:12;1.30;;;0.80;;
26588;SDS011;14235;48.532;8.722;2023-11-19T20:57:39;1.42;;;1.25;;
26588;SDS011;14235;48.532;8.722;2023-11-19T21:00:05;1.83;;;1.10;;
26588;SDS011;14235;48.532;8.722;2023-11-19T21:02:32;1.25;;;1.00;;
26588;SDS011;14235;48.532;8.722;2023-11-19T21:04:57;1.33;;;1.23;;
26588;SDS011;14235;48.532;8.722;2023-11-19T21:07:23;2.80;;;1.55;;
26588;SDS011;14235;48.532;8.722;2023-11-19T21:09:50;1.42;;;1.30;;
26588;SDS011;14235;48.532;8.722;2023-11-19T21:12:16;1.63;;;1.52;;
26588;SDS011;14235;48.532;8.722;2023-11-19T21:14:42;2.10;;;1.30;;
26588;SDS011;14235;48.532;8.722;2023-11-19T21:17:08;1.55;;;1.45;;
26588;SDS011;14235;48.532;8.722;2023-11-19T21:19:34;1.77;;;1.00;;
26588;SDS011;14235;48.532;8.722;2023-11-19T21:21:59;3.58;;;1.25;;
26588;SDS011;14235;48.532;8.722;2023-11-19T21:24:25;4.30;;;1.80;;
26588;SDS011;14235;48.532;8.722;2023-11-19T21:26:51;2.10;;;1.90;;
26588;SDS011;14235;48.532;8.722;2023-11-19T21:29:16;3.97;;;3.03;;
26588;SDS011;14235;48.532;8.722;2023-11-19T21:31:42;4.85;;;3.50;;
26588;SDS011;14235;48.532;8.722;2023-11-19T21:34:08;1.70;;;1.20;;
26588;SDS011;14235;48.532;8.722;2023-11-19T21:36:33;7.65;;;4.97;;
26588;SDS011;14235;48.532;8.722;2023-11-19T21:38:59;1.65;;;1.55;;
26588;SDS011;14235;48.532;8.722;2023-11-19T21:41:25;9.82;;;6.10;;
26588;SDS011;14235;48.532;8.722;2023-11-19T21:43:50;4.13;;;2.60;;
26588;SDS011;14235;48.532;8.722;2023-11-19T21:46:16;3.63;;;2.50;;
26588;SDS011;14235;48.532;8.722;2023-11-19T21:48:42;3.92;;;1.75;;
26588;SDS011;14235;48.532;8.722;2023-11-19T21:51:29;2.85;;;2.05;;
26588;SDS011;14235;48.532;8.722;2023-11-19T21:53:56;5.50;;;2.38;;
26588;SDS011;14235;48.532;8.722;2023-11-19T21:56:22;3.05;;;2.40;;
26588;SDS011;14235;48.532;8.722;2023-11-19T21:58:47;3.45;;;2.22;;
26588;SDS011;14235;48.532;8.722;2023-11-19T22:01:13;5.55;;;3.00;;
26588;SDS011;14235;48.532;8.722;2023-11-19T22:03:39;6.85;;;3.92;;
26588;SDS011;14235;48.532;8.722;2023-11-19T22:06:04;5.95;;;2.97;;
26588;SDS011;14235;48.532;8.722;2023-11-19T22:08:30;3.65;;;2.80;;
26588;SDS011;14235;48.532;8.722;2023-11-19T22:10:56;4.38;;;2.80;;
26588;SDS011;14235;48.532;8.722;2023-11-19T22:13:22;2.40;;;1.67;;
26588;SDS011;14235;48.532;8.722;2023-11-19T22:15:48;3.70;;;1.77;;
26588;SDS011;14235;48.532;8.722;2023-11-19T22:18:14;4.93;;;1.65;;
26588;SDS011;14235;48.532;8.722;2023-11-19T22:20:39;3.20;;;1.77;;
26588;SDS011;14235;48.532;8.722;2023-11-19T22:23:05;2.75;;;1.92;;
26588;SDS011;14235;48.532;8.722;2023-11-19T22:25:31;2.67;;;2.10;;
26588;SDS011;14235;48.532;8.722;2023-11-19T22:27:59;3.05;;;2.05;;
26588;SDS011;14235;48.532;8.722;2023-11-19T22:30:25;5.20;;;2.03;;
26588;SDS011;14235;48.532;8.722;2023-11-19T22:32:50;2.28;;;1.80;;
26588;SDS011;14235;48.532;8.722;2023-11-19T22:35:16;4.07;;;1.50;;
26588;SDS011;14235;48.532;8.722;2023-11-19T22:37:42;2.45;;;1.52;;
26588;SDS011;14235;48.532;8.722;2023-11-19T22:40:07;4.20;;;1.45;;
26588;SDS011;14235;48.532;8.722;2023-11-19T22:42:36;1.40;;;1.20;;
26588;SDS011;14235;48.532;8.722;2023-11-19T22:45:03;1.48;;;1.20;;
26588;SDS011;14235;48.532;8.722;2023-11-19T22:47:31;3.75;;;1.55;;
26588;SDS011;14235;48.532;8.722;2023-11-19T22:49:59;4.35;;;1.50;;
26588;SDS011;14235;48.532;8.722;2023-11-19T22:52:29;4.63;;;1.60;;
26588;SDS011;14235;48.532;8.722;2023-11-19T22:54:54;2.15;;;1.40;;
26588;SDS011;14235;48.532;8.722;2023-11-19T22:57:20;1.90;;;1.80;;
26588;SDS011;14235;48.532;8.722;2023-11-19T22:59:46;2.92;;;1.70;;
26588;SDS011;14235;48.532;8.722;2023-11-19T23:02:11;4.82;;;2.17;;
26588;SDS011;14235;48.532;8.722;2023-11-19T23:04:40;5.20;;;1.77;;
26588;SDS011;14235;48.532;8.722;2023-11-19T23:07:08;4.45;;;1.95;;
26588;SDS011;14235;48.532;8.722;2023-11-19T23:09:34;3.33;;;1.77;;
26588;SDS011;14235;48.532;8.722;2023-11-19T23:11:59;4.38;;;1.58;;
26588;SDS011;14235;48.532;8.722;2023-11-19T23:14:30;4.25;;;2.42;;
26588;SDS011;14235;48.532;8.722;2023-11-19T23:16:55;10.52;;;3.78;;
26588;SDS011;14235;48.532;8.722;2023-11-19T23:19:21;9.65;;;4.10;;
26588;SDS011;14235;48.532;8.722;2023-11-19T23:21:55;6.32;;;2.13;;
26588;SDS011;14235;48.532;8.722;2023-11-19T23:24:21;4.03;;;1.83;;
26588;SDS011;14235;48.532;8.722;2023-11-19T23:26:51;3.78;;;2.00;;
26588;SDS011;14235;48.532;8.722;2023-11-19T23:29:16;5.45;;;1.75;;
26588;SDS011;14235;48.532;8.722;2023-11-19T23:31:45;4.28;;;1.73;;
26588;SDS011;14235;48.532;8.722;2023-11-19T23:34:11;5.40;;;1.80;;
26588;SDS011;14235;48.532;8.722;2023-11-19T23:36:36;4.88;;;1.95;;
26588;SDS011;14235;48.532;8.722;2023-11-19T23:39:03;5.38;;;1.70;;
26588;SDS011;14235;48.532;8.722;2023-11-19T23:41:31;4.95;;;2.00;;
26588;SDS011;14235;48.532;8.722;2023-11-19T23:43:56;5.43;;;1.80;;
26588;SDS011;14235;48.532;8.722;2023-11-19T23:46:22;4.50;;;1.83;;
26588;SDS011;14235;48.532;8.722;2023-11-19T23:48:49;7.47;;;1.85;;
26588;SDS011;14235;48.532;8.722;2023-11-19T23:51:14;5.20;;;1.70;;
26588;SDS011;14235;48.532;8.722;2023-11-19T23:53:40;4.03;;;1.58;;
26588;SDS011;14235;48.532;8.722;2023-11-19T23:56:06;2.30;;;1.40;;
26588;SDS011;14235;48.532;8.722;2023-11-19T23:58:32;4.55;;;1.67;;
